sensor_id;sensor_type;location;lat;lon;timestamp;temperature;humidity
19363;DHT22;9817;50.80926400;5.16316200;2022-10-16T00:00:39;15.20;99.90
19363;DHT22;9817;50.80926400;5.16316200;2022-10-16T00:03:05;15.20;99.90
19363;DHT22;9817;50.80926400;5.16316200;2022-10-16T00:05:31;15.30;99.90
19363;DHT22;9817;50.80926400;5.16316200;2022-10-16T00:07:57;15.20;99.90
19363;DHT22;9817;50.80926400;5.16316200;2022-10-16T00:10:23;15.20;99.90
19363;DHT22;9817;50.80926400;5.16316200;2022-10-16T00:12:49;15.10;99.90
19363;DHT22;9817;50.80926400;5.16316200;2022-10-16T00:15:15;15.10;99.90
19363;DHT22;9817;50.80926400;5.16316200;2022-10-16T00:17:41;15.00;99.90
19363;DHT22;9817;50.80926400;5.16316200;2022-10-16T00:20:07;15.10;99.90
19363;DHT22;9817;50.80926400;5.16316200;2022-10-16T00:22:33;15.20;99.90
19363;DHT22;9817;50.80926400;5.16316200;2022-10-16T00:24:59;15.40;99.90
19363;DHT22;9817;50.80926400;5.16316200;2022-10-16T00:27:24;15.40;99.90
19363;DHT22;9817;50.80926400;5.16316200;2022-10-16T00:29:51;15.40;99.90
19363;DHT22;9817;50.80926400;5.16316200;2022-10-16T00:32:20;15.20;99.90
19363;DHT22;9817;50.80926400;5.16316200;2022-10-16T00:34:46;15.30;99.90
19363;DHT22;9817;50.80926400;5.16316200;2022-10-16T00:37:12;15.20;99.90
19363;DHT22;9817;50.80926400;5.16316200;2022-10-16T00:39:38;15.20;99.90
19363;DHT22;9817;50.80926400;5.16316200;2022-10-16T00:42:04;15.10;99.90
19363;DHT22;9817;50.80926400;5.16316200;2022-10-16T00:44:46;15.10;99.90
19363;DHT22;9817;50.80926400;5.16316200;2022-10-16T00:47:38;15.10;99.90
19363;DHT22;9817;50.80926400;5.16316200;2022-10-16T00:50:08;15.10;99.90
19363;DHT22;9817;50.80926400;5.16316200;2022-10-16T00:52:34;15.20;99.90
19363;DHT22;9817;50.80926400;5.16316200;2022-10-16T00:55:02;15.20;99.90
19363;DHT22;9817;50.80926400;5.16316200;2022-10-16T00:57:29;15.20;99.90
19363;DHT22;9817;50.80926400;5.16316200;2022-10-16T00:59:55;15.30;99.90
19363;DHT22;9817;50.80926400;5.16316200;2022-10-16T01:02:22;15.30;99.90
19363;DHT22;9817;50.80926400;5.16316200;2022-10-16T01:04:50;15.10;99.90
19363;DHT22;9817;50.80926400;5.16316200;2022-10-16T01:10:33;15.00;99.90
19363;DHT22;9817;50.80926400;5.16316200;2022-10-16T01:13:12;15.00;99.90
19363;DHT22;9817;50.80926400;5.16316200;2022-10-16T01:18:26;15.00;99.90
19363;DHT22;9817;50.80926400;5.16316200;2022-10-16T01:21:01;15.00;99.90
19363;DHT22;9817;50.80926400;5.16316200;2022-10-16T01:23:51;15.10;99.90
19363;DHT22;9817;50.80926400;5.16316200;2022-10-16T01:26:31;15.00;99.90
19363;DHT22;9817;50.80926400;5.16316200;2022-10-16T01:29:03;15.10;99.90
19363;DHT22;9817;50.80926400;5.16316200;2022-10-16T01:31:34;15.20;99.90
19363;DHT22;9817;50.80926400;5.16316200;2022-10-16T01:34:17;15.10;99.90
19363;DHT22;9817;50.80926400;5.16316200;2022-10-16T01:36:53;15.00;99.90
19363;DHT22;9817;50.80926400;5.16316200;2022-10-16T01:39:25;14.90;99.90
19363;DHT22;9817;50.80926400;5.16316200;2022-10-16T01:41:56;15.00;99.90
19363;DHT22;9817;50.80926400;5.16316200;2022-10-16T01:44:28;15.00;99.90
19363;DHT22;9817;50.80926400;5.16316200;2022-10-16T01:46:55;15.10;99.90
19363;DHT22;9817;50.80926400;5.16316200;2022-10-16T01:49:23;14.90;99.90
19363;DHT22;9817;50.80926400;5.16316200;2022-10-16T01:51:55;14.80;99.90
19363;DHT22;9817;50.80926400;5.16316200;2022-10-16T01:54:23;14.80;99.90
19363;DHT22;9817;50.80926400;5.16316200;2022-10-16T01:56:51;14.80;99.90
19363;DHT22;9817;50.80926400;5.16316200;2022-10-16T01:59:19;15.00;99.90
19363;DHT22;9817;50.80926400;5.16316200;2022-10-16T02:01:51;15.00;99.90
19363;DHT22;9817;50.80926400;5.16316200;2022-10-16T02:04:28;15.10;99.90
19363;DHT22;9817;50.80926400;5.16316200;2022-10-16T02:06:55;15.00;99.90
19363;DHT22;9817;50.80926400;5.16316200;2022-10-16T02:09:21;14.90;99.90
19363;DHT22;9817;50.80926400;5.16316200;2022-10-16T02:11:47;14.80;99.90
19363;DHT22;9817;50.80926400;5.16316200;2022-10-16T02:14:14;14.80;99.90
19363;DHT22;9817;50.80926400;5.16316200;2022-10-16T02:16:45;14.90;99.90
19363;DHT22;9817;50.80926400;5.16316200;2022-10-16T02:19:15;14.90;99.90
19363;DHT22;9817;50.80926400;5.16316200;2022-10-16T02:21:57;15.10;99.90
19363;DHT22;9817;50.80926400;5.16316200;2022-10-16T02:24:39;15.00;99.90
19363;DHT22;9817;50.80926400;5.16316200;2022-10-16T02:27:15;15.00;99.90
19363;DHT22;9817;50.80926400;5.16316200;2022-10-16T02:29:47;14.90;99.90
19363;DHT22;9817;50.80926400;5.16316200;2022-10-16T02:32:19;14.90;99.90
19363;DHT22;9817;50.80926400;5.16316200;2022-10-16T02:34:48;14.90;99.90
19363;DHT22;9817;50.80926400;5.16316200;2022-10-16T02:37:16;14.80;99.90
19363;DHT22;9817;50.80926400;5.16316200;2022-10-16T02:39:42;14.80;99.90
19363;DHT22;9817;50.80926400;5.16316200;2022-10-16T02:42:14;14.90;99.90
19363;DHT22;9817;50.80926400;5.16316200;2022-10-16T02:44:40;14.90;99.90
19363;DHT22;9817;50.80926400;5.16316200;2022-10-16T02:47:06;15.00;99.90
19363;DHT22;9817;50.80926400;5.16316200;2022-10-16T02:49:32;14.90;99.90
19363;DHT22;9817;50.80926400;5.16316200;2022-10-16T02:51:57;14.90;99.90
19363;DHT22;9817;50.80926400;5.16316200;2022-10-16T02:54:23;14.90;99.90
19363;DHT22;9817;50.80926400;5.16316200;2022-10-16T02:56:49;14.90;99.90
19363;DHT22;9817;50.80926400;5.16316200;2022-10-16T02:59:15;15.00;99.90
19363;DHT22;9817;50.80926400;5.16316200;2022-10-16T03:01:40;15.00;99.90
19363;DHT22;9817;50.80926400;5.16316200;2022-10-16T03:04:06;14.90;99.90
19363;DHT22;9817;50.80926400;5.16316200;2022-10-16T03:06:31;14.90;99.90
19363;DHT22;9817;50.80926400;5.16316200;2022-10-16T03:08:57;14.90;99.90
19363;DHT22;9817;50.80926400;5.16316200;2022-10-16T03:11:22;14.80;99.90
19363;DHT22;9817;50.80926400;5.16316200;2022-10-16T03:13:48;14.80;99.90
19363;DHT22;9817;50.80926400;5.16316200;2022-10-16T03:16:14;14.80;99.90
19363;DHT22;9817;50.80926400;5.16316200;2022-10-16T03:18:39;14.80;99.90
19363;DHT22;9817;50.80926400;5.16316200;2022-10-16T03:21:05;14.70;99.90
19363;DHT22;9817;50.80926400;5.16316200;2022-10-16T03:23:30;14.70;99.90
19363;DHT22;9817;50.80926400;5.16316200;2022-10-16T03:25:56;14.60;99.90
19363;DHT22;9817;50.80926400;5.16316200;2022-10-16T03:28:22;14.70;99.90
19363;DHT22;9817;50.80926400;5.16316200;2022-10-16T03:30:47;14.70;99.90
19363;DHT22;9817;50.80926400;5.16316200;2022-10-16T03:33:13;14.60;99.90
19363;DHT22;9817;50.80926400;5.16316200;2022-10-16T03:35:38;14.70;99.90
19363;DHT22;9817;50.80926400;5.16316200;2022-10-16T03:38:04;14.60;99.90
19363;DHT22;9817;50.80926400;5.16316200;2022-10-16T03:40:29;14.60;99.90
19363;DHT22;9817;50.80926400;5.16316200;2022-10-16T03:42:57;14.60;99.90
19363;DHT22;9817;50.80926400;5.16316200;2022-10-16T03:45:24;14.50;99.90
19363;DHT22;9817;50.80926400;5.16316200;2022-10-16T03:47:49;14.60;99.90
19363;DHT22;9817;50.80926400;5.16316200;2022-10-16T03:50:15;14.60;99.90
19363;DHT22;9817;50.80926400;5.16316200;2022-10-16T03:52:41;14.60;99.90
19363;DHT22;9817;50.80926400;5.16316200;2022-10-16T03:55:07;14.60;99.90
19363;DHT22;9817;50.80926400;5.16316200;2022-10-16T03:57:33;14.60;99.90
19363;DHT22;9817;50.80926400;5.16316200;2022-10-16T03:59:58;14.60;99.90
19363;DHT22;9817;50.80926400;5.16316200;2022-10-16T04:02:24;14.70;99.90
19363;DHT22;9817;50.80926400;5.16316200;2022-10-16T04:04:50;14.60;99.90
19363;DHT22;9817;50.80926400;5.16316200;2022-10-16T04:07:15;14.60;99.90
19363;DHT22;9817;50.80926400;5.16316200;2022-10-16T04:09:41;14.50;99.90
19363;DHT22;9817;50.80926400;5.16316200;2022-10-16T04:12:07;14.50;99.90
19363;DHT22;9817;50.80926400;5.16316200;2022-10-16T04:14:33;14.60;99.90
19363;DHT22;9817;50.80926400;5.16316200;2022-10-16T04:16:58;14.60;99.90
19363;DHT22;9817;50.80926400;5.16316200;2022-10-16T04:19:24;14.50;99.90
19363;DHT22;9817;50.80926400;5.16316200;2022-10-16T04:21:49;14.60;99.90
19363;DHT22;9817;50.80926400;5.16316200;2022-10-16T04:24:15;14.70;99.90
19363;DHT22;9817;50.80926400;5.16316200;2022-10-16T04:26:40;14.70;99.90
19363;DHT22;9817;50.80926400;5.16316200;2022-10-16T04:29:06;14.80;99.90
19363;DHT22;9817;50.80926400;5.16316200;2022-10-16T04:31:32;14.80;99.90
19363;DHT22;9817;50.80926400;5.16316200;2022-10-16T04:33:58;14.80;99.90
19363;DHT22;9817;50.80926400;5.16316200;2022-10-16T04:36:24;14.80;99.90
19363;DHT22;9817;50.80926400;5.16316200;2022-10-16T04:38:49;14.80;99.90
19363;DHT22;9817;50.80926400;5.16316200;2022-10-16T04:41:15;14.70;99.90
19363;DHT22;9817;50.80926400;5.16316200;2022-10-16T04:43:40;14.80;99.90
19363;DHT22;9817;50.80926400;5.16316200;2022-10-16T04:46:06;14.80;99.90
19363;DHT22;9817;50.80926400;5.16316200;2022-10-16T04:48:32;14.80;99.90
19363;DHT22;9817;50.80926400;5.16316200;2022-10-16T04:50:57;14.70;99.90
19363;DHT22;9817;50.80926400;5.16316200;2022-10-16T04:53:23;14.70;99.90
19363;DHT22;9817;50.80926400;5.16316200;2022-10-16T04:55:49;14.70;99.90
19363;DHT22;9817;50.80926400;5.16316200;2022-10-16T04:58:15;14.70;99.90
19363;DHT22;9817;50.80926400;5.16316200;2022-10-16T05:00:40;14.70;99.90
19363;DHT22;9817;50.80926400;5.16316200;2022-10-16T05:03:06;14.70;99.90
19363;DHT22;9817;50.80926400;5.16316200;2022-10-16T05:05:34;14.80;99.90
19363;DHT22;9817;50.80926400;5.16316200;2022-10-16T05:08:00;14.90;99.90
19363;DHT22;9817;50.80926400;5.16316200;2022-10-16T05:10:26;14.90;99.90
19363;DHT22;9817;50.80926400;5.16316200;2022-10-16T05:12:52;14.80;99.90
19363;DHT22;9817;50.80926400;5.16316200;2022-10-16T05:15:18;14.80;99.90
19363;DHT22;9817;50.80926400;5.16316200;2022-10-16T05:17:44;14.80;99.90
19363;DHT22;9817;50.80926400;5.16316200;2022-10-16T05:20:10;14.80;99.90
19363;DHT22;9817;50.80926400;5.16316200;2022-10-16T05:22:35;14.70;99.90
19363;DHT22;9817;50.80926400;5.16316200;2022-10-16T05:25:01;14.80;99.90
19363;DHT22;9817;50.80926400;5.16316200;2022-10-16T05:27:27;14.80;99.90
19363;DHT22;9817;50.80926400;5.16316200;2022-10-16T05:29:52;14.70;99.90
19363;DHT22;9817;50.80926400;5.16316200;2022-10-16T05:32:18;14.70;99.90
19363;DHT22;9817;50.80926400;5.16316200;2022-10-16T05:34:44;14.70;99.90
19363;DHT22;9817;50.80926400;5.16316200;2022-10-16T05:37:11;14.70;99.90
19363;DHT22;9817;50.80926400;5.16316200;2022-10-16T05:39:37;14.70;99.90
19363;DHT22;9817;50.80926400;5.16316200;2022-10-16T05:42:04;14.70;99.90
19363;DHT22;9817;50.80926400;5.16316200;2022-10-16T05:44:30;14.90;99.90
19363;DHT22;9817;50.80926400;5.16316200;2022-10-16T05:46:55;14.90;99.90
19363;DHT22;9817;50.80926400;5.16316200;2022-10-16T05:49:21;14.80;99.90
19363;DHT22;9817;50.80926400;5.16316200;2022-10-16T05:51:47;14.70;99.90
19363;DHT22;9817;50.80926400;5.16316200;2022-10-16T05:54:12;14.70;99.90
19363;DHT22;9817;50.80926400;5.16316200;2022-10-16T05:56:38;14.70;99.90
19363;DHT22;9817;50.80926400;5.16316200;2022-10-16T05:59:04;14.70;99.90
19363;DHT22;9817;50.80926400;5.16316200;2022-10-16T06:01:31;14.70;99.90
19363;DHT22;9817;50.80926400;5.16316200;2022-10-16T06:03:57;14.70;99.90
19363;DHT22;9817;50.80926400;5.16316200;2022-10-16T06:06:24;14.70;99.90
19363;DHT22;9817;50.80926400;5.16316200;2022-10-16T06:08:55;14.70;99.90
19363;DHT22;9817;50.80926400;5.16316200;2022-10-16T06:11:23;14.80;99.90
19363;DHT22;9817;50.80926400;5.16316200;2022-10-16T06:13:50;14.80;99.90
19363;DHT22;9817;50.80926400;5.16316200;2022-10-16T06:16:16;14.70;99.90
19363;DHT22;9817;50.80926400;5.16316200;2022-10-16T06:18:41;14.60;99.90
19363;DHT22;9817;50.80926400;5.16316200;2022-10-16T06:21:09;14.70;99.90
19363;DHT22;9817;50.80926400;5.16316200;2022-10-16T06:23:35;14.70;99.90
19363;DHT22;9817;50.80926400;5.16316200;2022-10-16T06:26:15;14.50;99.90
19363;DHT22;9817;50.80926400;5.16316200;2022-10-16T06:28:41;14.60;99.90
19363;DHT22;9817;50.80926400;5.16316200;2022-10-16T06:31:09;14.60;99.90
19363;DHT22;9817;50.80926400;5.16316200;2022-10-16T06:33:35;14.40;99.90
19363;DHT22;9817;50.80926400;5.16316200;2022-10-16T06:36:28;14.40;99.90
19363;DHT22;9817;50.80926400;5.16316200;2022-10-16T06:38:53;14.50;99.90
19363;DHT22;9817;50.80926400;5.16316200;2022-10-16T06:41:21;14.40;99.90
19363;DHT22;9817;50.80926400;5.16316200;2022-10-16T06:43:47;14.50;99.90
19363;DHT22;9817;50.80926400;5.16316200;2022-10-16T06:46:16;14.60;99.90
19363;DHT22;9817;50.80926400;5.16316200;2022-10-16T06:48:42;14.60;99.90
19363;DHT22;9817;50.80926400;5.16316200;2022-10-16T06:51:12;14.60;99.90
19363;DHT22;9817;50.80926400;5.16316200;2022-10-16T06:53:44;14.60;99.90
19363;DHT22;9817;50.80926400;5.16316200;2022-10-16T06:56:16;14.50;99.90
19363;DHT22;9817;50.80926400;5.16316200;2022-10-16T06:58:43;14.60;99.90
19363;DHT22;9817;50.80926400;5.16316200;2022-10-16T07:01:09;14.60;99.90
19363;DHT22;9817;50.80926400;5.16316200;2022-10-16T07:03:39;14.60;99.90
19363;DHT22;9817;50.80926400;5.16316200;2022-10-16T07:06:08;14.70;99.90
19363;DHT22;9817;50.80926400;5.16316200;2022-10-16T07:08:35;14.70;99.90
19363;DHT22;9817;50.80926400;5.16316200;2022-10-16T07:11:06;14.70;99.90
19363;DHT22;9817;50.80926400;5.16316200;2022-10-16T07:13:36;14.90;99.90
19363;DHT22;9817;50.80926400;5.16316200;2022-10-16T07:16:13;15.20;99.90
19363;DHT22;9817;50.80926400;5.16316200;2022-10-16T07:18:39;15.40;99.90
19363;DHT22;9817;50.80926400;5.16316200;2022-10-16T07:21:24;15.40;99.90
19363;DHT22;9817;50.80926400;5.16316200;2022-10-16T07:23:57;15.60;99.90
19363;DHT22;9817;50.80926400;5.16316200;2022-10-16T07:26:24;15.70;99.90
19363;DHT22;9817;50.80926400;5.16316200;2022-10-16T07:28:50;15.70;99.90
19363;DHT22;9817;50.80926400;5.16316200;2022-10-16T07:31:18;15.70;99.90
19363;DHT22;9817;50.80926400;5.16316200;2022-10-16T07:33:44;15.70;99.90
19363;DHT22;9817;50.80926400;5.16316200;2022-10-16T07:36:11;15.60;99.90
19363;DHT22;9817;50.80926400;5.16316200;2022-10-16T07:38:38;15.70;99.90
19363;DHT22;9817;50.80926400;5.16316200;2022-10-16T07:41:06;15.90;99.90
19363;DHT22;9817;50.80926400;5.16316200;2022-10-16T07:43:32;16.00;99.90
19363;DHT22;9817;50.80926400;5.16316200;2022-10-16T07:45:58;16.10;99.90
19363;DHT22;9817;50.80926400;5.16316200;2022-10-16T07:48:27;15.90;99.90
19363;DHT22;9817;50.80926400;5.16316200;2022-10-16T07:51:00;15.90;99.90
19363;DHT22;9817;50.80926400;5.16316200;2022-10-16T07:53:26;15.90;99.90
19363;DHT22;9817;50.80926400;5.16316200;2022-10-16T07:55:54;16.00;99.90
19363;DHT22;9817;50.80926400;5.16316200;2022-10-16T07:58:22;16.00;99.90
19363;DHT22;9817;50.80926400;5.16316200;2022-10-16T08:00:47;15.80;99.90
19363;DHT22;9817;50.80926400;5.16316200;2022-10-16T08:03:13;16.00;99.90
19363;DHT22;9817;50.80926400;5.16316200;2022-10-16T08:05:38;16.00;99.90
19363;DHT22;9817;50.80926400;5.16316200;2022-10-16T08:08:04;16.30;99.90
19363;DHT22;9817;50.80926400;5.16316200;2022-10-16T08:10:30;16.30;99.90
19363;DHT22;9817;50.80926400;5.16316200;2022-10-16T08:12:59;16.20;99.90
19363;DHT22;9817;50.80926400;5.16316200;2022-10-16T08:15:25;16.30;99.90
19363;DHT22;9817;50.80926400;5.16316200;2022-10-16T08:17:58;16.30;99.90
19363;DHT22;9817;50.80926400;5.16316200;2022-10-16T08:20:24;16.30;99.90
19363;DHT22;9817;50.80926400;5.16316200;2022-10-16T08:22:50;16.30;99.90
19363;DHT22;9817;50.80926400;5.16316200;2022-10-16T08:25:15;16.30;99.90
19363;DHT22;9817;50.80926400;5.16316200;2022-10-16T08:27:41;16.30;99.90
19363;DHT22;9817;50.80926400;5.16316200;2022-10-16T08:30:07;16.50;99.90
19363;DHT22;9817;50.80926400;5.16316200;2022-10-16T08:32:33;16.50;99.90
19363;DHT22;9817;50.80926400;5.16316200;2022-10-16T08:34:59;16.50;99.90
19363;DHT22;9817;50.80926400;5.16316200;2022-10-16T08:37:24;16.60;99.90
19363;DHT22;9817;50.80926400;5.16316200;2022-10-16T08:39:50;16.50;99.90
19363;DHT22;9817;50.80926400;5.16316200;2022-10-16T08:42:40;16.40;99.90
19363;DHT22;9817;50.80926400;5.16316200;2022-10-16T08:45:46;16.60;99.90
19363;DHT22;9817;50.80926400;5.16316200;2022-10-16T08:51:04;16.70;99.90
19363;DHT22;9817;50.80926400;5.16316200;2022-10-16T08:56:18;16.70;99.90
19363;DHT22;9817;50.80926400;5.16316200;2022-10-16T08:58:46;16.60;99.90
19363;DHT22;9817;50.80926400;5.16316200;2022-10-16T09:01:14;16.80;99.90
19363;DHT22;9817;50.80926400;5.16316200;2022-10-16T09:09:37;17.00;99.90
19363;DHT22;9817;50.80926400;5.16316200;2022-10-16T09:23:23;17.40;99.90
19363;DHT22;9817;50.80926400;5.16316200;2022-10-16T09:25:50;17.40;99.90
19363;DHT22;9817;50.80926400;5.16316200;2022-10-16T09:28:17;17.30;99.90
19363;DHT22;9817;50.80926400;5.16316200;2022-10-16T09:30:44;17.40;99.90
19363;DHT22;9817;50.80926400;5.16316200;2022-10-16T09:33:12;17.40;99.90
19363;DHT22;9817;50.80926400;5.16316200;2022-10-16T09:35:40;17.60;99.90
19363;DHT22;9817;50.80926400;5.16316200;2022-10-16T09:38:08;17.60;99.90
19363;DHT22;9817;50.80926400;5.16316200;2022-10-16T09:40:38;17.70;99.90
19363;DHT22;9817;50.80926400;5.16316200;2022-10-16T09:43:31;18.00;99.90
19363;DHT22;9817;50.80926400;5.16316200;2022-10-16T09:48:35;18.70;99.90
19363;DHT22;9817;50.80926400;5.16316200;2022-10-16T09:51:03;18.90;99.90
19363;DHT22;9817;50.80926400;5.16316200;2022-10-16T09:53:45;19.10;99.90
19363;DHT22;9817;50.80926400;5.16316200;2022-10-16T09:56:20;19.40;99.90
19363;DHT22;9817;50.80926400;5.16316200;2022-10-16T09:58:54;19.40;99.90
19363;DHT22;9817;50.80926400;5.16316200;2022-10-16T10:01:24;19.60;99.90
19363;DHT22;9817;50.80926400;5.16316200;2022-10-16T10:03:56;19.60;99.90
19363;DHT22;9817;50.80926400;5.16316200;2022-10-16T10:06:29;19.80;99.90
19363;DHT22;9817;50.80926400;5.16316200;2022-10-16T10:14:32;20.10;99.90
19363;DHT22;9817;50.80926400;5.16316200;2022-10-16T10:17:16;20.20;99.90
19363;DHT22;9817;50.80926400;5.16316200;2022-10-16T10:31:26;20.50;99.90
19363;DHT22;9817;50.80926400;5.16316200;2022-10-16T10:36:39;20.80;99.90
19363;DHT22;9817;50.80926400;5.16316200;2022-10-16T10:39:14;21.00;99.90
19363;DHT22;9817;50.80926400;5.16316200;2022-10-16T10:44:32;20.70;99.90
19363;DHT22;9817;50.80926400;5.16316200;2022-10-16T10:52:51;21.10;99.90
19363;DHT22;9817;50.80926400;5.16316200;2022-10-16T10:58:31;20.70;99.90
19363;DHT22;9817;50.80926400;5.16316200;2022-10-16T11:01:20;20.80;99.90
19363;DHT22;9817;50.80926400;5.16316200;2022-10-16T11:12:07;20.70;99.90
19363;DHT22;9817;50.80926400;5.16316200;2022-10-16T11:14:42;21.00;99.90
19363;DHT22;9817;50.80926400;5.16316200;2022-10-16T11:17:35;20.90;99.90
19363;DHT22;9817;50.80926400;5.16316200;2022-10-16T11:23:42;21.10;99.90
19363;DHT22;9817;50.80926400;5.16316200;2022-10-16T11:26:16;20.80;99.90
19363;DHT22;9817;50.80926400;5.16316200;2022-10-16T11:28:49;21.20;99.90
19363;DHT22;9817;50.80926400;5.16316200;2022-10-16T11:31:34;21.60;99.90
19363;DHT22;9817;50.80926400;5.16316200;2022-10-16T11:34:12;21.50;99.90
19363;DHT22;9817;50.80926400;5.16316200;2022-10-16T11:37:38;21.30;99.90
19363;DHT22;9817;50.80926400;5.16316200;2022-10-16T11:39:38;21.10;99.90
19363;DHT22;9817;50.80926400;5.16316200;2022-10-16T11:42:11;21.30;99.90
19363;DHT22;9817;50.80926400;5.16316200;2022-10-16T11:44:48;21.40;99.90
19363;DHT22;9817;50.80926400;5.16316200;2022-10-16T11:47:35;21.60;99.90
19363;DHT22;9817;50.80926400;5.16316200;2022-10-16T11:55:48;21.90;99.90
19363;DHT22;9817;50.80926400;5.16316200;2022-10-16T12:09:00;22.10;99.90
19363;DHT22;9817;50.80926400;5.16316200;2022-10-16T12:16:55;22.60;99.90
19363;DHT22;9817;50.80926400;5.16316200;2022-10-16T12:19:23;22.40;99.90
19363;DHT22;9817;50.80926400;5.16316200;2022-10-16T12:21:51;22.40;99.90
19363;DHT22;9817;50.80926400;5.16316200;2022-10-16T12:24:39;22.40;99.90
19363;DHT22;9817;50.80926400;5.16316200;2022-10-16T12:29:47;22.50;99.90
19363;DHT22;9817;50.80926400;5.16316200;2022-10-16T12:32:31;22.70;99.90
19363;DHT22;9817;50.80926400;5.16316200;2022-10-16T12:34:58;22.50;99.90
19363;DHT22;9817;50.80926400;5.16316200;2022-10-16T12:37:44;22.30;99.90
19363;DHT22;9817;50.80926400;5.16316200;2022-10-16T12:40:36;22.00;99.90
19363;DHT22;9817;50.80926400;5.16316200;2022-10-16T12:45:46;21.90;99.90
19363;DHT22;9817;50.80926400;5.16316200;2022-10-16T12:48:20;21.70;99.90
19363;DHT22;9817;50.80926400;5.16316200;2022-10-16T12:50:47;21.70;99.90
19363;DHT22;9817;50.80926400;5.16316200;2022-10-16T12:53:25;21.80;99.90
19363;DHT22;9817;50.80926400;5.16316200;2022-10-16T12:58:59;22.00;99.90
19363;DHT22;9817;50.80926400;5.16316200;2022-10-16T13:01:34;22.10;99.90
19363;DHT22;9817;50.80926400;5.16316200;2022-10-16T13:04:19;22.00;99.90
19363;DHT22;9817;50.80926400;5.16316200;2022-10-16T13:17:40;21.70;99.90
19363;DHT22;9817;50.80926400;5.16316200;2022-10-16T13:22:55;21.90;99.90
19363;DHT22;9817;50.80926400;5.16316200;2022-10-16T13:26:11;22.00;99.90
19363;DHT22;9817;50.80926400;5.16316200;2022-10-16T13:28:39;21.90;99.90
19363;DHT22;9817;50.80926400;5.16316200;2022-10-16T13:31:21;21.60;99.90
19363;DHT22;9817;50.80926400;5.16316200;2022-10-16T13:33:52;21.50;99.90
19363;DHT22;9817;50.80926400;5.16316200;2022-10-16T13:36:25;21.50;99.90
19363;DHT22;9817;50.80926400;5.16316200;2022-10-16T13:39:15;21.40;99.90
19363;DHT22;9817;50.80926400;5.16316200;2022-10-16T13:41:46;21.40;99.90
19363;DHT22;9817;50.80926400;5.16316200;2022-10-16T13:44:22;21.30;99.90
19363;DHT22;9817;50.80926400;5.16316200;2022-10-16T13:47:01;21.20;99.90
19363;DHT22;9817;50.80926400;5.16316200;2022-10-16T13:49:27;21.10;99.90
19363;DHT22;9817;50.80926400;5.16316200;2022-10-16T13:51:57;21.10;99.90
19363;DHT22;9817;50.80926400;5.16316200;2022-10-16T13:54:25;21.10;99.90
19363;DHT22;9817;50.80926400;5.16316200;2022-10-16T13:56:51;21.20;99.90
19363;DHT22;9817;50.80926400;5.16316200;2022-10-16T13:59:27;21.30;99.90
19363;DHT22;9817;50.80926400;5.16316200;2022-10-16T14:01:58;21.40;99.90
19363;DHT22;9817;50.80926400;5.16316200;2022-10-16T14:04:25;21.50;99.90
19363;DHT22;9817;50.80926400;5.16316200;2022-10-16T14:06:53;21.50;99.90
19363;DHT22;9817;50.80926400;5.16316200;2022-10-16T14:09:24;21.60;99.90
19363;DHT22;9817;50.80926400;5.16316200;2022-10-16T14:12:00;21.60;99.90
19363;DHT22;9817;50.80926400;5.16316200;2022-10-16T14:14:38;21.60;99.90
19363;DHT22;9817;50.80926400;5.16316200;2022-10-16T14:17:05;21.60;99.90
19363;DHT22;9817;50.80926400;5.16316200;2022-10-16T14:19:31;21.60;99.90
19363;DHT22;9817;50.80926400;5.16316200;2022-10-16T14:21:58;21.70;99.90
19363;DHT22;9817;50.80926400;5.16316200;2022-10-16T14:24:33;21.70;99.90
19363;DHT22;9817;50.80926400;5.16316200;2022-10-16T14:26:59;21.80;99.90
19363;DHT22;9817;50.80926400;5.16316200;2022-10-16T14:29:27;21.80;99.90
19363;DHT22;9817;50.80926400;5.16316200;2022-10-16T14:32:02;21.70;99.90
19363;DHT22;9817;50.80926400;5.16316200;2022-10-16T14:34:36;21.60;99.90
19363;DHT22;9817;50.80926400;5.16316200;2022-10-16T14:37:24;21.60;99.90
19363;DHT22;9817;50.80926400;5.16316200;2022-10-16T14:39:51;21.60;99.90
19363;DHT22;9817;50.80926400;5.16316200;2022-10-16T14:42:20;21.60;99.90
19363;DHT22;9817;50.80926400;5.16316200;2022-10-16T14:44:47;21.60;99.90
19363;DHT22;9817;50.80926400;5.16316200;2022-10-16T14:47:14;21.50;99.90
19363;DHT22;9817;50.80926400;5.16316200;2022-10-16T14:49:42;21.50;99.90
19363;DHT22;9817;50.80926400;5.16316200;2022-10-16T14:52:12;21.40;99.90
19363;DHT22;9817;50.80926400;5.16316200;2022-10-16T14:54:38;21.40;99.90
19363;DHT22;9817;50.80926400;5.16316200;2022-10-16T14:57:04;21.40;99.90
19363;DHT22;9817;50.80926400;5.16316200;2022-10-16T14:59:40;21.40;99.90
19363;DHT22;9817;50.80926400;5.16316200;2022-10-16T15:04:46;21.40;99.90
19363;DHT22;9817;50.80926400;5.16316200;2022-10-16T15:07:12;21.40;99.90
19363;DHT22;9817;50.80926400;5.16316200;2022-10-16T15:09:38;21.30;99.90
19363;DHT22;9817;50.80926400;5.16316200;2022-10-16T15:12:04;21.30;99.90
19363;DHT22;9817;50.80926400;5.16316200;2022-10-16T15:14:29;21.30;99.90
19363;DHT22;9817;50.80926400;5.16316200;2022-10-16T15:16:55;21.30;99.90
19363;DHT22;9817;50.80926400;5.16316200;2022-10-16T15:19:20;21.30;99.90
19363;DHT22;9817;50.80926400;5.16316200;2022-10-16T15:21:47;21.20;99.90
19363;DHT22;9817;50.80926400;5.16316200;2022-10-16T15:24:13;21.20;99.90
19363;DHT22;9817;50.80926400;5.16316200;2022-10-16T15:26:39;21.20;99.90
19363;DHT22;9817;50.80926400;5.16316200;2022-10-16T15:29:05;21.10;99.90
19363;DHT22;9817;50.80926400;5.16316200;2022-10-16T15:31:31;21.00;99.90
19363;DHT22;9817;50.80926400;5.16316200;2022-10-16T15:33:57;21.00;99.90
19363;DHT22;9817;50.80926400;5.16316200;2022-10-16T15:36:34;20.90;99.90
19363;DHT22;9817;50.80926400;5.16316200;2022-10-16T15:39:03;20.90;99.90
19363;DHT22;9817;50.80926400;5.16316200;2022-10-16T15:41:28;20.80;99.90
19363;DHT22;9817;50.80926400;5.16316200;2022-10-16T15:43:54;20.80;99.90
19363;DHT22;9817;50.80926400;5.16316200;2022-10-16T15:46:21;20.70;99.90
19363;DHT22;9817;50.80926400;5.16316200;2022-10-16T15:48:55;20.60;99.90